Time;durP1;ratioP1;P1;durP2;ratioP2;P2;SDS_P1;SDS_P2;PMS_P1;PMS_P2;Temp;Humidity;BMP_temperature;BMP_pressure;BME280_temperature;BME280_humidity;BME280_pressure;Samples;Min_cycle;Max_cycle;Signal;HPM_P1;HPM_P2
2021/11/03 00:01:57;;;;;;;31.70;28.95;;;;;;;;;;5075449;28;20194;-92
2021/11/03 00:04:24;;;;;;;35.00;31.45;;;;;;;;;;5075084;28;20222;-93
2021/11/03 00:06:51;;;;;;;33.23;30.17;;;;;;;;;;5075048;28;20191;-93
2021/11/03 00:09:19;;;;;;;33.03;30.17;;;;;;;;;;5075189;28;20460;-93
2021/11/03 00:11:46;;;;;;;34.60;31.60;;;;;;;;;;5075341;28;20648;-92
2021/11/03 00:14:13;;;;;;;34.15;31.20;;;;;;;;;;5074966;28;20462;-93
2021/11/03 00:16:42;;;;;;;34.67;31.57;;;;;;;;;;5077483;28;20285;-91
2021/11/03 00:19:10;;;;;;;33.97;30.77;;;;;;;;;;5075789;28;20429;-93
2021/11/03 00:21:37;;;;;;;33.25;30.45;;;;;;;;;;5078977;28;20201;-91
2021/11/03 00:24:05;;;;;;;32.43;29.53;;;;;;;;;;5077715;28;20229;-92
2021/11/03 00:26:32;;;;;;;31.58;28.70;;;;;;;;;;5074892;28;20460;-92
2021/11/03 00:28:59;;;;;;;32.08;29.45;;;;;;;;;;5074855;28;20207;-92
2021/11/03 00:31:27;;;;;;;31.30;28.55;;;;;;;;;;5074921;28;20195;-92
2021/11/03 00:33:56;;;;;;;31.85;29.20;;;;;;;;;;5074897;28;20198;-92
2021/11/03 00:36:23;;;;;;;31.43;28.63;;;;;;;;;;5074675;28;20558;-92
2021/11/03 00:38:51;;;;;;;31.42;28.77;;;;;;;;;;5074437;28;20865;-92
2021/11/03 00:41:18;;;;;;;31.77;28.67;;;;;;;;;;5074430;28;20584;-92
2021/11/03 00:43:45;;;;;;;33.42;30.42;;;;;;;;;;5073243;28;20247;-93
2021/11/03 00:46:13;;;;;;;31.43;28.50;;;;;;;;;;5073109;28;20206;-92
2021/11/03 00:48:40;;;;;;;31.70;28.90;;;;;;;;;;5074381;28;20434;-92
2021/11/03 00:51:09;;;;;;;32.08;29.15;;;;;;;;;;5074515;28;20201;-92
2021/11/03 00:53:37;;;;;;;31.00;28.48;;;;;;;;;;5074156;28;20186;-92
2021/11/03 00:56:04;;;;;;;32.67;29.80;;;;;;;;;;5073307;28;20209;-92
2021/11/03 00:58:31;;;;;;;32.03;29.30;;;;;;;;;;5074560;28;20206;-92
2021/11/03 01:00:59;;;;;;;31.63;28.90;;;;;;;;;;5073967;28;20206;-92
2021/11/03 01:03:26;;;;;;;30.50;28.10;;;;;;;;;;5073663;28;20217;-91
2021/11/03 01:05:54;;;;;;;31.95;29.15;;;;;;;;;;5074290;28;20197;-93
2021/11/03 01:08:23;;;;;;;32.30;29.52;;;;;;;;;;5073225;28;20236;-93
2021/11/03 01:10:51;;;;;;;31.67;28.98;;;;;;;;;;5074059;28;20571;-93
2021/11/03 01:13:19;;;;;;;31.13;28.42;;;;;;;;;;5074511;28;20217;-93
2021/11/03 01:15:47;;;;;;;32.42;29.73;;;;;;;;;;5072889;28;20235;-92
2021/11/03 01:18:14;;;;;;;32.25;29.20;;;;;;;;;;5074378;28;20216;-92
2021/11/03 01:20:44;;;;;;;31.73;29.13;;;;;;;;;;5073919;28;20194;-91
2021/11/03 01:23:11;;;;;;;31.42;28.63;;;;;;;;;;5074307;28;20208;-92
2021/11/03 01:25:40;;;;;;;31.75;28.85;;;;;;;;;;5073862;28;20245;-92
2021/11/03 01:28:08;;;;;;;31.08;28.33;;;;;;;;;;5074008;28;20611;-91
2021/11/03 01:30:35;;;;;;;30.83;28.20;;;;;;;;;;5074152;28;20197;-92
2021/11/03 01:33:03;;;;;;;31.75;29.08;;;;;;;;;;5073774;28;20246;-91
2021/11/03 01:35:31;;;;;;;32.67;29.98;;;;;;;;;;5073787;28;20251;-92
2021/11/03 01:37:59;;;;;;;31.55;28.73;;;;;;;;;;5073900;28;20229;-93
2021/11/03 01:40:28;;;;;;;32.10;29.48;;;;;;;;;;5073752;28;20209;-92
2021/11/03 01:42:57;;;;;;;34.47;31.50;;;;;;;;;;5073746;28;20190;-93
2021/11/03 01:45:26;;;;;;;34.20;30.83;;;;;;;;;;5073801;28;20228;-92
2021/11/03 01:47:54;;;;;;;32.17;29.30;;;;;;;;;;5074147;28;20212;-92
2021/11/03 01:50:27;;;;;;;32.10;29.33;;;;;;;;;;5073859;28;20607;-92
2021/11/03 01:52:58;;;;;;;33.33;30.23;;;;;;;;;;5073922;28;20194;-92
2021/11/03 01:55:26;;;;;;;32.05;28.83;;;;;;;;;;5073698;28;20206;-92
2021/11/03 01:57:55;;;;;;;32.45;29.33;;;;;;;;;;5073305;28;20212;-92
2021/11/03 02:00:25;;;;;;;31.45;28.75;;;;;;;;;;5072399;28;20201;-93
2021/11/03 02:02:54;;;;;;;32.63;29.83;;;;;;;;;;5073478;28;20190;-93
2021/11/03 02:05:21;;;;;;;32.75;30.05;;;;;;;;;;5073531;28;20217;-92
2021/11/03 02:07:50;;;;;;;31.20;28.70;;;;;;;;;;5073826;28;20200;-92
2021/11/03 02:10:18;;;;;;;32.78;29.95;;;;;;;;;;5073383;28;20205;-93
2021/11/03 02:12:45;;;;;;;36.00;32.33;;;;;;;;;;5073720;28;20204;-93
2021/11/03 02:15:15;;;;;;;31.40;28.70;;;;;;;;;;5075357;28;20196;-92
2021/11/03 02:17:44;;;;;;;31.42;28.63;;;;;;;;;;5077518;28;20197;-93
2021/11/03 02:20:13;;;;;;;30.80;28.20;;;;;;;;;;5077531;28;20213;-93
2021/11/03 02:22:45;;;;;;;33.83;30.85;;;;;;;;;;5077227;28;20636;-92
2021/11/03 02:25:15;;;;;;;32.60;29.60;;;;;;;;;;5076773;28;20242;-92
2021/11/03 02:27:44;;;;;;;31.50;28.80;;;;;;;;;;5077094;28;20200;-93
2021/11/03 02:30:13;;;;;;;32.20;29.17;;;;;;;;;;5077164;28;20209;-92
2021/11/03 02:32:43;;;;;;;31.67;28.67;;;;;;;;;;5076995;28;20205;-92
2021/11/03 02:35:11;;;;;;;31.05;28.52;;;;;;;;;;5077157;28;20293;-92
2021/11/03 02:37:46;;;;;;;32.25;29.45;;;;;;;;;;5076616;28;20230;-93
2021/11/03 02:40:22;;;;;;;31.80;28.92;;;;;;;;;;5076794;28;20204;-93
2021/11/03 02:42:51;;;;;;;31.60;28.90;;;;;;;;;;5076952;28;20651;-92
2021/11/03 02:45:22;;;;;;;32.60;29.35;;;;;;;;;;5076491;28;20282;-91
2021/11/03 02:47:49;;;;;;;31.45;28.65;;;;;;;;;;5077534;28;20193;-91
2021/11/03 02:50:16;;;;;;;31.08;28.30;;;;;;;;;;5079436;28;20192;-92
2021/11/03 02:52:44;;;;;;;52.10;31.27;;;;;;;;;;5077499;28;20196;-94
2021/11/03 02:55:12;;;;;;;29.70;27.20;;;;;;;;;;5081214;28;20208;-92
2021/11/03 02:57:41;;;;;;;31.63;28.75;;;;;;;;;;5077020;28;20189;-93
2021/11/03 03:00:13;;;;;;;30.75;28.10;;;;;;;;;;5076456;28;20567;-91
2021/11/03 03:02:41;;;;;;;30.75;28.08;;;;;;;;;;5058741;28;20208;-92
2021/11/03 03:05:09;;;;;;;30.42;27.95;;;;;;;;;;5076042;28;20220;-92
2021/11/03 03:07:37;;;;;;;31.40;28.83;;;;;;;;;;5076360;28;20224;-93
2021/11/03 03:10:05;;;;;;;30.48;27.92;;;;;;;;;;5076057;28;20743;-92
2021/11/03 03:12:34;;;;;;;30.88;28.42;;;;;;;;;;5076093;28;20205;-92
2021/11/03 03:15:03;;;;;;;30.10;27.67;;;;;;;;;;5076191;28;20205;-92
2021/11/03 03:17:30;;;;;;;30.83;27.88;;;;;;;;;;5076296;28;20189;-92
2021/11/03 03:19:58;;;;;;;29.67;27.15;;;;;;;;;;5075981;28;20257;-93
2021/11/03 03:22:25;;;;;;;31.10;28.42;;;;;;;;;;5076081;28;20635;-92
2021/11/03 03:24:53;;;;;;;33.38;29.95;;;;;;;;;;5075555;28;20236;-92
2021/11/03 03:27:20;;;;;;;32.67;29.88;;;;;;;;;;5075614;28;20197;-93
2021/11/03 03:29:48;;;;;;;31.13;28.17;;;;;;;;;;5075931;28;20208;-92
2021/11/03 03:32:17;;;;;;;31.55;28.75;;;;;;;;;;5075929;28;20202;-92
2021/11/03 03:34:45;;;;;;;33.65;30.35;;;;;;;;;;5075736;28;20195;-91
2021/11/03 03:37:12;;;;;;;32.63;29.75;;;;;;;;;;5074512;28;20638;-92
2021/11/03 03:39:40;;;;;;;34.08;30.67;;;;;;;;;;5076297;28;20197;-92
2021/11/03 03:42:08;;;;;;;34.00;31.10;;;;;;;;;;5075812;28;20202;-92
2021/11/03 03:44:36;;;;;;;32.00;29.20;;;;;;;;;;5075584;28;20223;-92
2021/11/03 03:47:04;;;;;;;32.67;29.67;;;;;;;;;;5075590;28;20193;-92
2021/11/03 03:49:33;;;;;;;31.25;28.45;;;;;;;;;;5075890;28;20224;-93
2021/11/03 03:52:01;;;;;;;30.38;27.58;;;;;;;;;;5076819;28;20200;-94
2021/11/03 03:54:29;;;;;;;31.05;28.35;;;;;;;;;;5075370;28;20204;-94
2021/11/03 03:56:56;;;;;;;31.10;28.33;;;;;;;;;;5075409;28;20197;-93
2021/11/03 03:59:23;;;;;;;29.70;27.35;;;;;;;;;;5075240;28;20209;-95
2021/11/03 04:01:51;;;;;;;30.17;27.55;;;;;;;;;;5075246;28;20195;-93
2021/11/03 04:04:18;;;;;;;31.33;28.55;;;;;;;;;;5075518;28;20217;-94
2021/11/03 04:06:47;;;;;;;30.27;27.58;;;;;;;;;;5075216;28;20204;-94
2021/11/03 04:09:15;;;;;;;29.73;27.10;;;;;;;;;;5074966;28;20207;-94
2021/11/03 04:11:42;;;;;;;28.48;26.27;;;;;;;;;;5075288;28;20641;-94
2021/11/03 04:14:10;;;;;;;29.52;27.05;;;;;;;;;;5075386;28;20186;-93
2021/11/03 04:16:37;;;;;;;29.77;27.27;;;;;;;;;;5075285;28;20190;-94
2021/11/03 04:19:05;;;;;;;29.23;26.92;;;;;;;;;;5074963;28;20212;-94
2021/11/03 04:21:32;;;;;;;30.08;27.67;;;;;;;;;;5074959;28;20212;-94
2021/11/03 04:24:01;;;;;;;29.80;27.42;;;;;;;;;;5057016;28;20649;-93
2021/11/03 04:26:29;;;;;;;29.13;26.75;;;;;;;;;;5074824;28;20212;-94
2021/11/03 04:28:57;;;;;;;28.95;26.65;;;;;;;;;;5075051;28;20655;-93
2021/11/03 04:31:24;;;;;;;30.40;27.55;;;;;;;;;;5074564;28;20200;-94
2021/11/03 04:33:52;;;;;;;30.00;27.45;;;;;;;;;;5074755;28;20206;-94
2021/11/03 04:36:20;;;;;;;28.98;26.52;;;;;;;;;;5074914;28;20195;-94
2021/11/03 04:38:47;;;;;;;30.27;27.65;;;;;;;;;;5074162;28;20260;-94
2021/11/03 04:41:16;;;;;;;31.17;28.58;;;;;;;;;;5074795;28;20195;-94
2021/11/03 04:43:46;;;;;;;31.63;28.35;;;;;;;;;;5074398;28;20205;-94
2021/11/03 04:46:14;;;;;;;31.55;28.75;;;;;;;;;;5074351;28;20777;-95
2021/11/03 04:48:41;;;;;;;28.48;26.27;;;;;;;;;;5073352;28;20208;-94
2021/11/03 04:51:09;;;;;;;30.02;27.40;;;;;;;;;;5074870;28;20198;-95
2021/11/03 04:53:36;;;;;;;29.50;27.10;;;;;;;;;;5074672;28;20196;-95
2021/11/03 04:56:04;;;;;;;28.45;26.25;;;;;;;;;;5073278;28;20257;-94
2021/11/03 04:58:34;;;;;;;30.30;27.70;;;;;;;;;;5073955;28;20284;-94
2021/11/03 05:01:01;;;;;;;31.27;28.38;;;;;;;;;;5074395;28;20530;-93
2021/11/03 05:03:29;;;;;;;29.70;27.15;;;;;;;;;;5074215;28;20212;-94
2021/11/03 05:05:58;;;;;;;31.55;28.67;;;;;;;;;;5073894;28;20228;-94
2021/11/03 05:08:26;;;;;;;29.65;27.25;;;;;;;;;;5074003;28;20219;-96
2021/11/03 05:10:53;;;;;;;29.42;27.02;;;;;;;;;;5074551;28;20541;-94
2021/11/03 05:13:21;;;;;;;29.13;26.85;;;;;;;;;;5074400;28;20205;-94
2021/11/03 05:15:50;;;;;;;29.90;27.48;;;;;;;;;;5074387;28;20208;-94
2021/11/03 05:18:17;;;;;;;30.15;27.67;;;;;;;;;;5074289;28;20198;-95
2021/11/03 05:20:45;;;;;;;29.10;26.80;;;;;;;;;;5078076;28;20204;-93
2021/11/03 05:23:12;;;;;;;28.67;26.45;;;;;;;;;;5075375;28;20192;-94
2021/11/03 05:25:39;;;;;;;28.17;26.08;;;;;;;;;;5076870;28;20246;-93
2021/11/03 05:28:07;;;;;;;29.02;26.77;;;;;;;;;;5076708;28;20250;-94
2021/11/03 05:30:36;;;;;;;28.50;26.13;;;;;;;;;;5073437;28;20188;-93
2021/11/03 05:33:04;;;;;;;30.25;27.58;;;;;;;;;;5074208;28;20205;-94
2021/11/03 05:35:33;;;;;;;30.38;27.95;;;;;;;;;;5072889;28;20294;-94
2021/11/03 05:38:00;;;;;;;30.15;27.60;;;;;;;;;;5074096;28;20705;-94
2021/11/03 05:40:29;;;;;;;30.73;28.20;;;;;;;;;;5073942;28;20255;-94
2021/11/03 05:42:57;;;;;;;30.40;27.77;;;;;;;;;;5073756;28;20193;-94
2021/11/03 05:45:24;;;;;;;30.05;27.48;;;;;;;;;;5072704;28;20228;-93
2021/11/03 05:47:52;;;;;;;28.58;26.27;;;;;;;;;;5072722;28;20211;-94
2021/11/03 05:50:22;;;;;;;29.85;27.52;;;;;;;;;;5077392;28;20211;-95
2021/11/03 05:52:49;;;;;;;28.48;26.33;;;;;;;;;;5077862;28;20587;-95
2021/11/03 05:55:17;;;;;;;31.42;28.63;;;;;;;;;;5076583;28;20651;-94
2021/11/03 05:57:45;;;;;;;29.95;27.60;;;;;;;;;;5077894;28;20201;-94
2021/11/03 06:00:15;;;;;;;28.42;26.23;;;;;;;;;;5077758;28;20631;-94
2021/11/03 06:02:43;;;;;;;29.83;27.35;;;;;;;;;;5077727;28;20212;-94
2021/11/03 06:05:10;;;;;;;30.23;27.70;;;;;;;;;;5077605;28;20691;-94
2021/11/03 06:07:40;;;;;;;29.20;26.83;;;;;;;;;;5076489;28;20204;-95
2021/11/03 06:10:11;;;;;;;27.52;25.63;;;;;;;;;;5077876;28;20639;-94
2021/11/03 06:12:39;;;;;;;28.90;26.45;;;;;;;;;;5076220;28;20208;-93
2021/11/03 06:15:06;;;;;;;28.70;26.35;;;;;;;;;;5077516;28;20212;-94
2021/11/03 06:17:33;;;;;;;28.02;26.00;;;;;;;;;;5076291;28;20204;-94
2021/11/03 06:20:01;;;;;;;28.10;25.90;;;;;;;;;;5077331;28;20659;-94
2021/11/03 06:22:29;;;;;;;26.95;25.00;;;;;;;;;;5077126;28;20207;-94
2021/11/03 06:25:05;;;;;;;27.73;25.63;;;;;;;;;;5076242;28;20256;-94
2021/11/03 06:27:40;;;;;;;28.30;26.00;;;;;;;;;;5077371;28;20212;-94
2021/11/03 06:30:08;;;;;;;28.83;26.10;;;;;;;;;;5077140;28;20249;-94
2021/11/03 06:32:36;;;;;;;28.70;26.25;;;;;;;;;;5077099;28;20205;-94
2021/11/03 06:35:04;;;;;;;27.83;25.63;;;;;;;;;;5076622;28;20211;-94
2021/11/03 06:37:31;;;;;;;29.20;27.00;;;;;;;;;;5075033;28;20231;-95
2021/11/03 06:40:00;;;;;;;28.27;26.05;;;;;;;;;;5076900;28;20200;-94
2021/11/03 06:42:27;;;;;;;28.38;25.85;;;;;;;;;;5076825;28;20202;-95
2021/11/03 06:44:55;;;;;;;27.75;25.65;;;;;;;;;;5076980;28;20243;-96
2021/11/03 06:47:22;;;;;;;31.00;28.50;;;;;;;;;;5076912;28;20266;-96
2021/11/03 06:49:50;;;;;;;29.35;27.05;;;;;;;;;;5077179;28;20599;-96
2021/11/03 06:52:17;;;;;;;30.70;28.45;;;;;;;;;;5076728;28;20215;-95
2021/11/03 06:54:45;;;;;;;29.25;26.75;;;;;;;;;;5075522;28;20201;-94
2021/11/03 06:57:13;;;;;;;27.73;25.75;;;;;;;;;;5076593;28;20191;-96
2021/11/03 06:59:44;;;;;;;27.27;25.23;;;;;;;;;;5075322;28;20198;-96
2021/11/03 07:02:16;;;;;;;30.50;27.95;;;;;;;;;;5187912;22;20201;-96
2021/11/03 07:04:44;;;;;;;30.50;27.70;;;;;;;;;;5043479;28;20214;-96
2021/11/03 07:07:11;;;;;;;30.38;27.77;;;;;;;;;;5038316;28;20221;-96
2021/11/03 07:09:38;;;;;;;29.10;26.88;;;;;;;;;;5039550;28;20206;-96
2021/11/03 07:12:06;;;;;;;27.80;25.52;;;;;;;;;;5038844;28;20205;-96
2021/11/03 07:14:35;;;;;;;30.70;28.00;;;;;;;;;;5040681;28;20198;-96
2021/11/03 07:17:03;;;;;;;29.13;26.80;;;;;;;;;;5054579;28;20196;-96
2021/11/03 07:19:33;;;;;;;31.15;28.35;;;;;;;;;;5042841;28;20190;-96
2021/11/03 07:22:00;;;;;;;30.65;27.95;;;;;;;;;;5024394;28;20217;-84
2021/11/03 07:24:28;;;;;;;29.50;27.10;;;;;;;;;;5038320;28;20191;-93
2021/11/03 07:26:55;;;;;;;29.52;27.10;;;;;;;;;;5036126;28;20222;-88
2021/11/03 07:29:23;;;;;;;29.67;27.38;;;;;;;;;;5036374;28;20245;-90
2021/11/03 07:31:51;;;;;;;29.92;27.63;;;;;;;;;;5035993;28;20195;-89
2021/11/03 07:34:19;;;;;;;29.67;27.25;;;;;;;;;;5036468;28;20199;-89
2021/11/03 07:36:46;;;;;;;29.52;27.13;;;;;;;;;;5035932;28;20233;-90
2021/11/03 07:39:14;;;;;;;30.50;28.10;;;;;;;;;;5036517;28;20547;-89
2021/11/03 07:41:41;;;;;;;29.00;26.90;;;;;;;;;;5035979;28;20211;-90
2021/11/03 07:44:09;;;;;;;28.08;25.88;;;;;;;;;;5036093;28;20553;-91
2021/11/03 07:46:37;;;;;;;27.90;25.90;;;;;;;;;;5035421;28;20234;-91
2021/11/03 07:49:06;;;;;;;29.30;26.63;;;;;;;;;;5035739;28;20206;-91
2021/11/03 07:51:34;;;;;;;31.48;29.08;;;;;;;;;;5035775;28;20524;-91
2021/11/03 07:54:01;;;;;;;28.65;26.48;;;;;;;;;;5035486;28;20203;-91
2021/11/03 07:56:29;;;;;;;28.60;26.40;;;;;;;;;;5017801;28;20256;-91
2021/11/03 07:58:57;;;;;;;28.15;25.85;;;;;;;;;;5035349;28;20194;-91
2021/11/03 08:01:24;;;;;;;27.70;25.58;;;;;;;;;;5035443;28;20192;-90
2021/11/03 08:03:52;;;;;;;28.58;26.45;;;;;;;;;;5034971;28;20235;-91
2021/11/03 08:06:21;;;;;;;28.33;26.30;;;;;;;;;;5035438;28;20219;-90
2021/11/03 08:08:57;;;;;;;28.33;26.23;;;;;;;;;;5035277;28;20261;-89
2021/11/03 08:11:27;;;;;;;27.27;25.27;;;;;;;;;;5035091;28;20199;-91
2021/11/03 08:13:54;;;;;;;27.50;25.50;;;;;;;;;;5035165;28;20680;-90
2021/11/03 08:16:22;;;;;;;29.23;26.77;;;;;;;;;;5034988;28;20209;-91
2021/11/03 08:18:49;;;;;;;29.13;26.90;;;;;;;;;;5035033;28;20191;-91
2021/11/03 08:21:17;;;;;;;28.83;26.73;;;;;;;;;;5035163;28;20196;-89
2021/11/03 08:23:46;;;;;;;29.20;27.00;;;;;;;;;;5035761;28;20196;-90
2021/11/03 08:26:13;;;;;;;28.42;26.38;;;;;;;;;;5035317;28;20259;-89
2021/11/03 08:28:41;;;;;;;27.50;25.58;;;;;;;;;;5035092;28;20194;-90
2021/11/03 08:31:09;;;;;;;28.35;26.25;;;;;;;;;;5035094;28;20203;-90
2021/11/03 08:33:38;;;;;;;29.15;26.83;;;;;;;;;;5035399;28;20189;-90
2021/11/03 08:36:07;;;;;;;28.08;26.00;;;;;;;;;;5035057;28;20224;-90
2021/11/03 08:38:35;;;;;;;29.05;26.90;;;;;;;;;;5035151;28;20189;-90
2021/11/03 08:41:05;;;;;;;28.55;26.45;;;;;;;;;;5035163;28;20552;-90
2021/11/03 08:43:34;;;;;;;29.73;27.53;;;;;;;;;;5035320;28;20196;-90
2021/11/03 08:46:02;;;;;;;31.65;29.45;;;;;;;;;;5034748;28;20484;-90
2021/11/03 08:48:30;;;;;;;30.15;27.95;;;;;;;;;;5034998;28;20222;-90
2021/11/03 08:50:57;;;;;;;30.17;27.85;;;;;;;;;;5035353;28;20196;-90
2021/11/03 08:53:25;;;;;;;30.77;28.48;;;;;;;;;;5037226;28;20193;-90
2021/11/03 08:55:54;;;;;;;28.85;26.73;;;;;;;;;;5037179;28;20189;-90
2021/11/03 08:58:25;;;;;;;29.15;26.80;;;;;;;;;;5034969;28;20220;-89
2021/11/03 09:00:53;;;;;;;28.58;26.58;;;;;;;;;;5035242;28;20191;-89
2021/11/03 09:03:20;;;;;;;29.73;27.42;;;;;;;;;;5034305;28;20252;-89
2021/11/03 09:05:48;;;;;;;28.63;26.33;;;;;;;;;;5034817;28;20212;-84
2021/11/03 09:08:17;;;;;;;28.58;26.48;;;;;;;;;;5035894;28;20203;-87
2021/11/03 09:10:46;;;;;;;28.57;26.37;;;;;;;;;;5035361;28;20198;-90
2021/11/03 09:13:14;;;;;;;27.67;25.77;;;;;;;;;;5035983;28;20444;-93
2021/11/03 09:15:44;;;;;;;27.92;25.73;;;;;;;;;;5036336;28;20850;-90
2021/11/03 09:18:13;;;;;;;27.35;25.35;;;;;;;;;;5036313;28;20184;-90
2021/11/03 09:20:42;;;;;;;28.83;26.67;;;;;;;;;;5035732;28;20198;-90
2021/11/03 09:23:10;;;;;;;27.35;25.17;;;;;;;;;;5034853;28;20462;-90
2021/11/03 09:25:38;;;;;;;28.10;26.10;;;;;;;;;;5036843;28;20215;-90
2021/11/03 09:28:06;;;;;;;28.17;26.17;;;;;;;;;;5035525;28;20191;-90
2021/11/03 09:30:34;;;;;;;28.15;26.05;;;;;;;;;;5035948;28;20421;-90
2021/11/03 09:33:13;;;;;;;27.07;25.17;;;;;;;;;;5035998;28;20189;-91
2021/11/03 09:35:43;;;;;;;26.37;24.50;;;;;;;;;;5036650;28;20443;-91
2021/11/03 09:38:11;;;;;;;29.00;26.87;;;;;;;;;;5035648;28;20471;-90
2021/11/03 09:40:44;;;;;;;29.40;27.20;;;;;;;;;;5036343;28;20442;-91
2021/11/03 09:43:19;;;;;;;29.50;27.30;;;;;;;;;;5036424;28;20448;-88
2021/11/03 09:45:47;;;;;;;27.60;25.70;;;;;;;;;;5036184;28;20481;-90
2021/11/03 09:48:20;;;;;;;29.90;27.77;;;;;;;;;;5035915;28;20409;-90
2021/11/03 09:50:50;;;;;;;28.47;26.30;;;;;;;;;;5035473;28;20836;-90
2021/11/03 09:53:25;;;;;;;27.93;26.03;;;;;;;;;;5034918;28;20449;-89
2021/11/03 09:55:53;;;;;;;29.33;27.10;;;;;;;;;;5035752;28;20488;-90
2021/11/03 09:58:32;;;;;;;28.77;26.50;;;;;;;;;;5018874;28;20959;-89
2021/11/03 10:01:03;;;;;;;27.93;25.83;;;;;;;;;;5033800;28;20454;-90
2021/11/03 10:03:36;;;;;;;28.43;26.23;;;;;;;;;;5037498;28;20456;-90
2021/11/03 10:06:06;;;;;;;27.67;25.60;;;;;;;;;;5035440;28;20442;-90
2021/11/03 10:08:37;;;;;;;27.53;25.23;;;;;;;;;;5035731;28;20414;-90
2021/11/03 10:11:06;;;;;;;27.30;25.40;;;;;;;;;;5035611;28;20418;-91
2021/11/03 10:13:35;;;;;;;28.83;26.17;;;;;;;;;;5018260;28;20425;-91
2021/11/03 10:16:22;;;;;;;27.43;25.53;;;;;;;;;;5040239;28;20491;-90
2021/11/03 10:18:59;;;;;;;26.87;25.00;;;;;;;;;;5042173;28;20413;-90
2021/11/03 10:21:28;;;;;;;28.87;26.30;;;;;;;;;;5044469;28;20446;-91
2021/11/03 10:23:58;;;;;;;27.30;25.30;;;;;;;;;;5018378;28;20454;-91
2021/11/03 10:26:27;;;;;;;27.13;25.13;;;;;;;;;;5034851;28;20483;-91
2021/11/03 10:29:07;;;;;;;27.70;25.60;;;;;;;;;;5037730;28;20533;-91
2021/11/03 10:31:43;;;;;;;28.20;26.27;;;;;;;;;;5039606;28;20443;-92
2021/11/03 10:34:24;;;;;;;26.97;24.90;;;;;;;;;;5018573;28;20465;-93
2021/11/03 10:37:01;;;;;;;27.03;25.10;;;;;;;;;;5043137;28;20481;-92
2021/11/03 10:39:30;;;;;;;24.30;22.53;;;;;;;;;;5042149;28;20439;-92
2021/11/03 10:42:00;;;;;;;27.10;24.83;;;;;;;;;;5042891;28;20830;-92
2021/11/03 10:44:30;;;;;;;27.20;25.30;;;;;;;;;;5023962;28;20444;-90
2021/11/03 10:46:58;;;;;;;27.43;25.53;;;;;;;;;;5039102;28;20480;-92
2021/11/03 10:49:37;;;;;;;27.10;25.23;;;;;;;;;;5037816;28;20459;-93
2021/11/03 10:52:15;;;;;;;28.00;26.00;;;;;;;;;;5037598;28;20952;-92
2021/11/03 10:54:46;;;;;;;26.70;24.90;;;;;;;;;;5020838;28;20504;-92
2021/11/03 10:57:20;;;;;;;27.23;25.40;;;;;;;;;;5019509;28;20426;-91
2021/11/03 10:59:49;;;;;;;28.00;26.10;;;;;;;;;;5037189;28;20443;-93
2021/11/03 11:02:22;;;;;;;26.90;25.10;;;;;;;;;;5036915;28;20457;-87
2021/11/03 11:04:51;;;;;;;26.33;24.63;;;;;;;;;;5020998;28;20448;-91
2021/11/03 11:07:24;;;;;;;25.60;23.90;;;;;;;;;;5037500;28;20479;-92
2021/11/03 11:09:54;;;;;;;26.80;24.93;;;;;;;;;;5036503;28;20435;-89
2021/11/03 11:12:24;;;;;;;26.37;24.57;;;;;;;;;;5037217;28;20775;-95
2021/11/03 11:14:53;;;;;;;28.53;26.50;;;;;;;;;;5036546;28;20411;-90
2021/11/03 11:17:22;;;;;;;27.13;25.33;;;;;;;;;;5036392;28;20442;-90
2021/11/03 11:20:01;;;;;;;27.67;25.87;;;;;;;;;;5036623;28;20421;-92
2021/11/03 11:22:52;;;;;;;28.40;26.40;;;;;;;;;;5036978;28;20438;-93
2021/11/03 11:25:22;;;;;;;28.73;26.80;;;;;;;;;;5021750;28;20437;-92
2021/11/03 11:28:02;;;;;;;27.90;25.80;;;;;;;;;;5038047;28;20886;-95
2021/11/03 11:30:34;;;;;;;27.73;25.70;;;;;;;;;;5018499;28;20453;-94
2021/11/03 11:33:03;;;;;;;28.93;26.83;;;;;;;;;;5036947;28;20929;-93
2021/11/03 11:35:39;;;;;;;26.87;24.87;;;;;;;;;;5036252;28;20450;-93
2021/11/03 11:38:13;;;;;;;25.30;23.60;;;;;;;;;;5036042;28;20466;-92
2021/11/03 11:40:48;;;;;;;25.43;23.73;;;;;;;;;;5036045;28;20424;-93
2021/11/03 11:43:18;;;;;;;25.23;23.53;;;;;;;;;;5032181;28;20469;-93
2021/11/03 11:45:46;;;;;;;26.03;24.23;;;;;;;;;;5035672;28;20461;-93
2021/11/03 11:48:19;;;;;;;26.00;24.20;;;;;;;;;;5036013;28;20483;-93
2021/11/03 11:50:49;;;;;;;28.03;25.90;;;;;;;;;;5037350;28;20418;-92
2021/11/03 11:53:25;;;;;;;25.70;24.10;;;;;;;;;;5036532;28;20448;-92
2021/11/03 11:56:24;;;;;;;27.07;25.17;;;;;;;;;;5037392;28;20450;-92
2021/11/03 11:58:53;;;;;;;30.00;27.40;;;;;;;;;;4960565;29;20423;-96
2021/11/03 12:01:23;;;;;;;29.87;27.37;;;;;;;;;;4964601;29;20459;-96
2021/11/03 12:03:54;;;;;;;31.33;28.63;;;;;;;;;;4963606;29;20519;-96
2021/11/03 12:06:38;;;;;;;31.60;29.10;;;;;;;;;;4964803;29;20463;-96
2021/11/03 12:09:18;;;;;;;30.00;27.60;;;;;;;;;;4963018;29;20455;-96
2021/11/03 12:11:51;;;;;;;30.90;28.37;;;;;;;;;;4968946;29;20451;-96
2021/11/03 12:14:33;;;;;;;33.40;30.70;;;;;;;;;;4968944;29;20459;-96
2021/11/03 12:17:36;;;;;;;30.53;27.93;;;;;;;;;;4961563;29;20442;-91
2021/11/03 12:20:08;;;;;;;33.87;30.77;;;;;;;;;;4962644;29;20467;-92
2021/11/03 12:22:55;;;;;;;34.37;31.37;;;;;;;;;;4961438;29;20450;-91
2021/11/03 12:25:45;;;;;;;34.87;31.80;;;;;;;;;;4961199;28;20448;-92
2021/11/03 12:28:33;;;;;;;34.10;31.10;;;;;;;;;;4960611;29;20491;-92
2021/11/03 12:31:09;;;;;;;34.03;31.00;;;;;;;;;;4960418;29;20458;-91
2021/11/03 12:33:52;;;;;;;33.50;30.90;;;;;;;;;;5021159;28;20428;-92
2021/11/03 12:36:26;;;;;;;33.70;30.80;;;;;;;;;;5039802;28;20470;-91
2021/11/03 12:39:13;;;;;;;33.53;30.73;;;;;;;;;;5041258;28;20496;-91
2021/11/03 12:41:43;;;;;;;34.73;31.73;;;;;;;;;;5048081;28;20474;-92
2021/11/03 12:44:17;;;;;;;33.23;30.33;;;;;;;;;;5040057;28;20473;-91
2021/11/03 12:46:47;;;;;;;32.10;29.30;;;;;;;;;;5044844;28;20551;-91
2021/11/03 12:49:16;;;;;;;32.07;29.27;;;;;;;;;;5046868;28;20463;-91
2021/11/03 12:51:47;;;;;;;33.83;31.03;;;;;;;;;;5045357;28;20428;-91
2021/11/03 12:54:19;;;;;;;35.43;32.27;;;;;;;;;;5044575;28;20953;-91
2021/11/03 12:56:58;;;;;;;34.73;31.70;;;;;;;;;;5045014;28;20414;-91
2021/11/03 12:59:33;;;;;;;34.23;31.33;;;;;;;;;;5044406;28;20437;-92
2021/11/03 13:02:02;;;;;;;33.97;31.00;;;;;;;;;;5044074;28;20460;-92
2021/11/03 13:04:31;;;;;;;34.43;31.53;;;;;;;;;;5044491;28;20421;-92
2021/11/03 13:07:00;;;;;;;32.80;29.70;;;;;;;;;;5043900;28;20440;-91
2021/11/03 13:09:30;;;;;;;32.17;29.47;;;;;;;;;;5045944;28;20441;-92
2021/11/03 13:11:58;;;;;;;34.23;31.20;;;;;;;;;;5044503;28;20450;-91
2021/11/03 13:14:27;;;;;;;34.33;31.30;;;;;;;;;;5044785;28;20411;-90
2021/11/03 13:16:57;;;;;;;32.50;29.90;;;;;;;;;;5043724;28;20442;-88
2021/11/03 13:19:29;;;;;;;33.07;30.27;;;;;;;;;;5042846;28;20413;-85
2021/11/03 13:21:59;;;;;;;32.20;29.53;;;;;;;;;;5043469;28;20453;-85
2021/11/03 13:24:28;;;;;;;32.73;29.83;;;;;;;;;;5041733;28;20441;-87
2021/11/03 13:27:00;;;;;;;33.50;30.50;;;;;;;;;;5044618;28;20463;-86
2021/11/03 13:29:30;;;;;;;30.73;28.23;;;;;;;;;;5047125;28;20468;-96
2021/11/03 13:32:30;;;;;;;32.03;28.73;;;;;;;;;;5047483;28;20420;-96
2021/11/03 13:35:17;;;;;;;30.93;28.43;;;;;;;;;;5051614;28;20442;-96
2021/11/03 13:37:52;;;;;;;31.37;28.67;;;;;;;;;;5046700;28;20455;-95
2021/11/03 13:40:22;;;;;;;31.77;29.03;;;;;;;;;;5044111;28;20408;-94
2021/11/03 13:43:04;;;;;;;31.53;28.73;;;;;;;;;;5043915;28;20414;-96
2021/11/03 13:45:33;;;;;;;32.27;29.63;;;;;;;;;;5041483;28;20442;-96
2021/11/03 13:48:05;;;;;;;33.07;30.37;;;;;;;;;;5040964;28;21014;-96
2021/11/03 13:50:33;;;;;;;32.97;29.90;;;;;;;;;;5015379;28;20448;-95
2021/11/03 13:53:15;;;;;;;31.80;29.00;;;;;;;;;;5041279;28;20418;-93
2021/11/03 13:55:45;;;;;;;32.27;29.53;;;;;;;;;;5039142;28;20455;-93
2021/11/03 13:58:22;;;;;;;32.73;29.93;;;;;;;;;;5040359;28;20439;-91
2021/11/03 14:00:59;;;;;;;32.10;29.30;;;;;;;;;;5006664;28;20437;-87
2021/11/03 14:03:27;;;;;;;30.90;28.50;;;;;;;;;;5039945;28;20467;-86
2021/11/03 14:05:55;;;;;;;32.07;29.10;;;;;;;;;;5037499;28;20450;-86
2021/11/03 14:08:38;;;;;;;31.47;28.87;;;;;;;;;;5029949;28;20488;-89
2021/11/03 14:11:06;;;;;;;31.33;28.90;;;;;;;;;;5046043;28;20545;-89
2021/11/03 14:13:35;;;;;;;32.37;29.67;;;;;;;;;;5026459;28;20701;-90
2021/11/03 14:16:15;;;;;;;32.07;29.30;;;;;;;;;;5044818;28;20459;-87
2021/11/03 14:18:42;;;;;;;30.20;27.70;;;;;;;;;;5044342;28;20437;-89
2021/11/03 14:21:18;;;;;;;29.90;27.47;;;;;;;;;;5043678;28;20428;-90
2021/11/03 14:23:53;;;;;;;30.77;28.43;;;;;;;;;;5040154;28;20454;-91
2021/11/03 14:26:21;;;;;;;30.60;27.90;;;;;;;;;;5040369;28;20941;-89
2021/11/03 14:31:31;;;;;;;28.00;25.60;;;;;;;;;;5039072;28;20457;-92
2021/11/03 14:34:00;;;;;;;27.93;25.80;;;;;;;;;;5039555;28;20422;-91
2021/11/03 14:36:28;;;;;;;29.50;27.10;;;;;;;;;;5039096;28;20955;-91